Time;durP1;ratioP1;P1;durP2;ratioP2;P2;SDS_P1;SDS_P2;PMS_P1;PMS_P2;Temp;Humidity;BMP_temperature;BMP_pressure;BME280_temperature;BME280_humidity;BME280_pressure;Samples;Min_cycle;Max_cycle;Signal;HPM_P1;HPM_P2
2023/03/07 00:01:13;;;;;;;;;;;;;;;25.50;48.93;96170.54;618995;229;65221;-78
2023/03/07 00:03:41;;;;;;;;;;;;;;;25.49;49.58;96179.73;618271;228;62943;-78
2023/03/07 00:06:10;;;;;;;;;;;;;;;25.49;48.28;96177.05;618985;229;62713;-78
2023/03/07 00:08:37;;;;;;;;;;;;;;;25.49;48.12;96184.33;618948;229;65571;-78
2023/03/07 00:11:06;;;;;;;;;;;;;;;25.47;48.41;96182.73;618984;229;65986;-78
2023/03/07 00:13:35;;;;;;;;;;;;;;;25.49;52.09;96181.64;618971;229;64713;-78
2023/03/07 00:16:06;;;;;;;;;;;;;;;25.46;48.06;96178.47;618948;229;63053;-77
2023/03/07 00:18:34;;;;;;;;;;;;;;;25.45;46.71;96190.35;618906;229;65046;-78
2023/03/07 00:21:04;;;;;;;;;;;;;;;25.45;50.02;96184.97;618920;229;65558;-78
2023/03/07 00:23:33;;;;;;;;;;;;;;;25.44;48.24;96177.99;618987;229;62986;-78
2023/03/07 00:26:01;;;;;;;;;;;;;;;25.45;48.43;96176.09;618975;229;62697;-78
2023/03/07 00:28:29;;;;;;;;;;;;;;;25.44;49.88;96171.83;618912;229;65081;-78
2023/03/07 00:31:01;;;;;;;;;;;;;;;25.42;47.39;96166.75;618903;229;66056;-78
2023/03/07 00:33:29;;;;;;;;;;;;;;;25.43;50.49;96148.73;618888;227;65645;-78
2023/03/07 00:35:58;;;;;;;;;;;;;;;25.41;48.65;96145.58;618981;229;64874;-78
2023/03/07 00:38:26;;;;;;;;;;;;;;;25.40;46.81;96141.28;618203;228;65449;-77
2023/03/07 00:40:58;;;;;;;;;;;;;;;25.40;51.20;96144.79;617827;229;66292;-78
2023/03/07 00:43:25;;;;;;;;;;;;;;;25.39;47.09;96143.19;617589;228;62807;-78
2023/03/07 00:45:53;;;;;;;;;;;;;;;25.38;47.67;96155.07;617875;229;63268;-77
2023/03/07 00:48:20;;;;;;;;;;;;;;;25.38;47.60;96152.37;617865;229;63212;-77
2023/03/07 00:50:48;;;;;;;;;;;;;;;25.37;48.40;96158.87;617900;229;64966;-78
2023/03/07 00:53:16;;;;;;;;;;;;;;;25.37;47.43;96153.50;617829;229;65471;-77
2023/03/07 00:55:45;;;;;;;;;;;;;;;25.36;46.25;96149.22;617867;229;62880;-77
2023/03/07 10:34:21;;;;;;;;;;;;;;;25.72;43.70;96061.10;588338;241;40122;-74
2023/03/07 10:36:50;;;;;;;;;;;;;;;25.72;46.86;96059.19;588489;241;65373;-70
2023/03/07 10:39:31;;;;;;;;;;;;;;;25.74;46.62;96058.88;588550;241;65367;-71
2023/03/07 10:42:00;;;;;;;;;;;;;;;25.74;41.40;96054.28;588508;241;65655;-72
2023/03/07 10:44:29;;;;;;;;;;;;;;;25.77;46.16;96055.54;587971;241;65405;-73
2023/03/07 10:46:58;;;;;;;;;;;;;;;25.78;44.36;96051.72;587438;241;63828;-73
2023/03/07 10:49:29;;;;;;;;;;;;;;;25.77;45.48;96050.94;588173;241;65858;-71
2023/03/07 10:52:05;;;;;;;;;;;;;;;25.77;45.40;96050.94;588455;241;64071;-72
2023/03/07 10:54:34;;;;;;;;;;;;;;;25.79;47.15;96045.24;587661;240;63172;-70
2023/03/07 10:57:09;;;;;;;;;;;;;;;25.78;45.67;96040.95;587208;240;65644;-72
2023/03/07 10:59:38;;;;;;;;;;;;;;;25.78;44.67;96041.77;588282;240;65484;-72
2023/03/07 11:02:07;;;;;;;;;;;;;;;25.79;46.11;96037.17;588159;238;65230;-70
2023/03/07 11:04:46;;;;;;;;;;;;;;;25.78;44.67;96025.62;587607;240;65415;-72
2023/03/07 11:07:20;;;;;;;;;;;;;;;25.79;45.23;96029.87;588648;241;64967;-72
2023/03/07 11:09:47;;;;;;;;;;;;;;;25.75;44.66;96015.48;587860;241;65063;-69
2023/03/07 11:12:16;;;;;;;;;;;;;;;25.82;43.42;96014.98;588575;241;63260;-68
2023/03/07 11:14:51;;;;;;;;;;;;;;;25.83;45.57;96014.67;588433;241;65492;-68
2023/03/07 11:17:20;;;;;;;;;;;;;;;25.85;43.01;96008.98;588438;238;62988;-70
2023/03/07 11:19:49;;;;;;;;;;;;;;;25.86;43.01;95997.90;588649;241;65400;-70
2023/03/07 11:22:21;;;;;;;;;;;;;;;25.89;43.45;95999.93;588503;241;70507;-69
2023/03/07 11:24:54;;;;;;;;;;;;;;;25.91;43.19;95994.98;588605;241;65186;-67
2023/03/07 11:27:35;;;;;;;;;;;;;;;25.93;41.27;95991.20;588613;241;65697;-68
2023/03/07 11:30:21;;;;;;;;;;;;;;;25.93;42.19;95991.20;588602;241;65163;-70
2023/03/07 11:32:52;;;;;;;;;;;;;;;25.92;45.06;95979.64;588621;239;65287;-70
2023/03/07 11:35:21;;;;;;;;;;;;;;;25.90;48.06;95985.34;587435;241;63157;-69
2023/03/07 11:37:51;;;;;;;;;;;;;;;25.87;47.07;95980.62;588640;241;65202;-70
2023/03/07 11:40:22;;;;;;;;;;;;;;;25.86;44.75;95979.05;588627;241;64935;-69
2023/03/07 11:42:56;;;;;;;;;;;;;;;25.88;43.18;95979.49;588703;241;65739;-70
2023/03/07 11:45:33;;;;;;;;;;;;;;;25.89;46.18;95966.81;587123;241;64916;-69
2023/03/07 11:48:05;;;;;;;;;;;;;;;25.89;45.03;95967.63;588435;241;62928;-69
2023/03/07 11:50:34;;;;;;;;;;;;;;;25.89;44.18;95967.63;587826;241;66285;-69
2023/03/07 11:53:06;;;;;;;;;;;;;;;25.91;46.00;95954.61;588528;241;63235;-69
2023/03/07 11:55:35;;;;;;;;;;;;;;;25.90;44.14;95958.42;588503;241;65152;-71
2023/03/07 11:58:07;;;;;;;;;;;;;;;25.96;38.79;95956.33;588604;241;65417;-71
2023/03/07 12:00:36;;;;;;;;;;;;;;;26.02;39.17;95946.14;588369;241;63124;-70
2023/03/07 12:03:08;;;;;;;;;;;;;;;26.04;38.51;95942.01;585750;239;65067;-70
2023/03/07 12:05:37;;;;;;;;;;;;;;;26.05;41.65;95937.41;587866;241;65481;-71
2023/03/07 12:08:20;;;;;;;;;;;;;;;26.04;38.59;95935.84;588332;241;45427;-72
2023/03/07 12:10:54;;;;;;;;;;;;;;;26.05;38.89;95935.50;588637;241;64838;-72
2023/03/07 12:13:22;;;;;;;;;;;;;;;26.07;39.41;95935.18;588147;241;65464;-73
2023/03/07 12:15:55;;;;;;;;;;;;;;;26.08;41.63;95920.59;588314;241;62976;-73
2023/03/07 12:18:24;;;;;;;;;;;;;;;26.08;40.88;95931.36;588016;241;64990;-70
2023/03/07 12:21:09;;;;;;;;;;;;;;;26.08;42.79;95931.36;588597;241;65312;-72
2023/03/07 12:23:41;;;;;;;;;;;;;;;26.09;40.70;95930.26;588497;241;64956;-71
2023/03/07 12:26:12;;;;;;;;;;;;;;;26.11;39.16;95930.73;588246;241;65172;-70
2023/03/07 12:28:49;;;;;;;;;;;;;;;26.11;40.28;95926.13;588438;241;65358;-70
2023/03/07 12:31:21;;;;;;;;;;;;;;;26.10;41.91;95919.14;588661;241;63086;-69
2023/03/07 12:33:53;;;;;;;;;;;;;;;26.09;41.48;95931.04;588568;239;63073;-70
2023/03/07 12:36:38;;;;;;;;;;;;;;;26.09;39.57;95919.48;590630;239;65524;-70
2023/03/07 12:39:07;;;;;;;;;;;;;;;26.12;39.69;95922.30;590273;239;65395;-70
2023/03/07 12:41:45;;;;;;;;;;;;;;;26.15;39.83;95925.45;589957;240;65065;-72
2023/03/07 12:44:14;;;;;;;;;;;;;;;26.14;40.04;95924.67;590093;240;63321;-72
2023/03/07 12:46:49;;;;;;;;;;;;;;;26.16;39.65;95922.42;590172;240;65077;-72
2023/03/07 12:49:26;;;;;;;;;;;;;;;26.16;39.57;95925.11;590160;240;65046;-73
2023/03/07 12:51:55;;;;;;;;;;;;;;;26.17;39.82;95924.01;589966;240;62433;-72
2023/03/07 12:54:27;;;;;;;;;;;;;;;26.18;39.70;95928.27;589969;240;65053;-73
2023/03/07 12:56:57;;;;;;;;;;;;;;;26.19;39.82;95927.17;590045;240;71159;-72
2023/03/07 12:59:26;;;;;;;;;;;;;;;26.19;39.86;95924.48;590144;240;63409;-71
2023/03/07 13:01:55;;;;;;;;;;;;;;;26.19;43.67;95924.48;590183;240;65017;-72
2023/03/07 13:04:24;;;;;;;;;;;;;;;26.19;39.96;95929.86;589955;240;63016;-72
2023/03/07 13:06:53;;;;;;;;;;;;;;;26.20;40.30;95926.03;590049;240;63198;-72
2023/03/07 13:09:22;;;;;;;;;;;;;;;26.20;40.09;95927.95;590152;240;64921;-72
2023/03/07 13:12:07;;;;;;;;;;;;;;;26.20;39.95;95923.34;590028;240;63049;-71
2023/03/07 13:14:39;;;;;;;;;;;;;;;26.21;40.49;95929.52;590122;240;63318;-72
2023/03/07 13:17:10;;;;;;;;;;;;;;;26.20;39.88;95923.34;590151;240;65358;-70
2023/03/07 13:19:41;;;;;;;;;;;;;;;26.19;40.20;95919.09;590140;240;63060;-72
2023/03/07 13:22:16;;;;;;;;;;;;;;;26.21;40.53;95919.52;589855;240;66097;-71
2023/03/07 13:24:44;;;;;;;;;;;;;;;26.21;40.22;95913.36;590111;240;65221;-71
2023/03/07 13:27:16;;;;;;;;;;;;;;;26.21;40.05;95916.83;590028;240;64911;-71
2023/03/07 13:30:02;;;;;;;;;;;;;;;26.20;40.47;95923.34;590130;240;63340;-72
2023/03/07 13:32:53;;;;;;;;;;;;;;;26.21;40.20;95916.05;590086;240;63109;-71
2023/03/07 13:35:34;;;;;;;;;;;;;;;26.20;40.51;95906.41;590018;240;65417;-71
2023/03/07 13:38:13;;;;;;;;;;;;;;;26.21;40.01;95918.74;590032;240;65589;-72
2023/03/07 13:40:47;;;;;;;;;;;;;;;26.20;40.20;95923.34;590139;240;64951;-72
2023/03/07 13:43:26;;;;;;;;;;;;;;;26.20;40.60;95917.96;589946;240;65366;-73
2023/03/07 13:46:00;;;;;;;;;;;;;;;26.19;40.28;95908.31;589679;240;63446;-73
2023/03/07 13:48:29;;;;;;;;;;;;;;;26.20;40.31;95914.48;589723;240;63164;-73
2023/03/07 13:50:58;;;;;;;;;;;;;;;26.20;40.79;95911.80;590074;240;63167;-73
2023/03/07 13:53:45;;;;;;;;;;;;;;;26.19;40.20;95911.02;590115;240;65541;-72
2023/03/07 13:56:23;;;;;;;;;;;;;;;26.19;41.73;95913.70;590097;240;65186;-71
2023/03/07 13:59:05;;;;;;;;;;;;;;;26.20;43.97;95917.96;590024;240;44824;-72
2023/03/07 14:01:38;;;;;;;;;;;;;;;26.19;41.16;95908.31;590041;240;65691;-72
2023/03/07 14:04:09;;;;;;;;;;;;;;;26.18;41.18;95912.11;590069;240;65354;-73
2023/03/07 14:06:41;;;;;;;;;;;;;;;26.19;40.30;95910.20;590018;240;65272;-71
2023/03/07 14:09:11;;;;;;;;;;;;;;;26.18;40.35;95901.34;589888;240;65417;-72
2023/03/07 14:11:43;;;;;;;;;;;;;;;26.18;40.35;95898.64;589929;240;63160;-71
2023/03/07 14:14:18;;;;;;;;;;;;;;;26.19;40.77;95905.63;590056;240;65198;-72
2023/03/07 14:16:53;;;;;;;;;;;;;;;26.17;40.76;95899.77;590115;240;65706;-72
2023/03/07 14:19:38;;;;;;;;;;;;;;;26.18;40.58;95903.25;588958;240;65187;-71
2023/03/07 14:22:07;;;;;;;;;;;;;;;26.17;40.26;95894.39;590037;240;65555;-74
2023/03/07 14:24:42;;;;;;;;;;;;;;;26.17;41.82;95899.77;589752;240;65471;-72
2023/03/07 14:27:13;;;;;;;;;;;;;;;26.18;42.58;95905.94;589981;240;65134;-73
2023/03/07 14:29:49;;;;;;;;;;;;;;;26.17;40.45;95907.07;590121;240;65150;-70
2023/03/07 14:32:29;;;;;;;;;;;;;;;26.17;40.65;95909.77;590163;240;63330;-73
2023/03/07 14:34:58;;;;;;;;;;;;;;;26.16;41.21;95917.03;588835;240;65090;-71
2023/03/07 14:37:27;;;;;;;;;;;;;;;26.16;44.26;95913.56;588653;241;65198;-71
2023/03/07 14:39:59;;;;;;;;;;;;;;;26.16;40.79;95916.25;588658;241;65718;-70
2023/03/07 14:42:39;;;;;;;;;;;;;;;26.11;41.23;95915.35;588518;241;46646;-71
2023/03/07 14:45:11;;;;;;;;;;;;;;;26.12;45.63;95918.83;588702;241;62927;-69
2023/03/07 14:47:57;;;;;;;;;;;;;;;26.13;46.29;95920.39;588731;241;65505;-70
2023/03/07 14:50:27;;;;;;;;;;;;;;;26.13;47.16;95912.31;588658;240;47386;-69
2023/03/07 14:52:56;;;;;;;;;;;;;;;26.14;46.23;95916.59;588698;241;65040;-76
2023/03/07 14:55:25;;;;;;;;;;;;;;;26.15;45.67;95914.69;588386;241;65944;-70
2023/03/07 14:57:54;;;;;;;;;;;;;;;26.15;46.02;95906.61;588673;241;64766;-72
2023/03/07 15:00:28;;;;;;;;;;;;;;;26.16;46.44;95919.72;588647;241;65047;-71
2023/03/07 15:02:54;;;;;;;;;;;;;;;26.15;47.98;95910.08;588365;238;63386;-73
2023/03/07 15:05:26;;;;;;;;;;;;;;;26.15;45.90;95910.08;588615;241;65593;-73
2023/03/07 15:07:53;;;;;;;;;;;;;;;26.16;46.51;95916.25;588692;241;65103;-73
2023/03/07 15:10:31;;;;;;;;;;;;;;;26.15;46.13;95915.47;588674;241;63380;-69
2023/03/07 15:12:59;;;;;;;;;;;;;;;26.16;46.82;95916.25;588625;241;65027;-73
2023/03/07 15:15:28;;;;;;;;;;;;;;;26.15;46.32;95904.70;588697;241;64848;-71
2023/03/07 15:17:57;;;;;;;;;;;;;;;26.16;47.35;95902.78;588724;241;65606;-72
2023/03/07 15:20:26;;;;;;;;;;;;;;;26.16;47.18;95900.87;588559;240;65263;-73
2023/03/07 15:22:58;;;;;;;;;;;;;;;26.15;46.91;95902.00;590892;240;63027;-72
2023/03/07 15:25:26;;;;;;;;;;;;;;;26.15;47.04;95904.70;590700;239;62484;-72
2023/03/07 15:28:00;;;;;;;;;;;;;;;26.15;46.42;95903.91;590774;240;63097;-71
2023/03/07 15:30:28;;;;;;;;;;;;;;;26.15;47.49;95901.22;590830;240;64917;-71
2023/03/07 15:33:03;;;;;;;;;;;;;;;26.16;45.94;95902.78;590831;240;65899;-71
2023/03/07 15:35:31;;;;;;;;;;;;;;;26.15;46.29;95904.70;591070;240;66264;-71
2023/03/07 15:38:01;;;;;;;;;;;;;;;26.17;47.67;95896.30;591077;240;63189;-71
2023/03/07 15:40:30;;;;;;;;;;;;;;;26.16;46.27;95903.57;590900;240;65532;-71
2023/03/07 15:42:59;;;;;;;;;;;;;;;26.16;46.64;95900.87;591073;240;65219;-70
2023/03/07 15:45:28;;;;;;;;;;;;;;;26.16;45.98;95898.19;591016;240;65051;-72
2023/03/07 15:47:57;;;;;;;;;;;;;;;26.16;46.04;95897.40;590956;240;63321;-67
2023/03/07 15:50:25;;;;;;;;;;;;;;;26.14;45.13;95903.13;591002;240;63238;-68
2023/03/07 15:52:55;;;;;;;;;;;;;;;26.13;47.44;95906.92;591007;240;65078;-66
2023/03/07 15:55:24;;;;;;;;;;;;;;;26.11;46.06;95909.19;590919;240;65567;-67
2023/03/07 15:57:56;;;;;;;;;;;;;;;26.09;46.86;95911.41;591033;240;65225;-67
2023/03/07 16:00:34;;;;;;;;;;;;;;;26.06;46.48;95912.08;590789;240;63071;-68
2023/03/07 16:03:21;;;;;;;;;;;;;;;26.05;48.48;95913.95;591040;240;63363;-66
2023/03/07 16:05:48;;;;;;;;;;;;;;;26.03;47.21;95913.52;590966;240;65338;-69
2023/03/07 16:08:18;;;;;;;;;;;;;;;26.02;49.09;95914.63;590922;240;65065;-69
2023/03/07 16:10:51;;;;;;;;;;;;;;;26.00;46.79;95918.76;591091;240;63336;-69
2023/03/07 16:13:20;;;;;;;;;;;;;;;25.97;49.77;95912.12;591149;240;62963;-69
2023/03/07 16:15:59;;;;;;;;;;;;;;;25.94;47.79;95909.31;590923;240;43768;-71
2023/03/07 16:18:28;;;;;;;;;;;;;;;25.91;46.54;95913.45;587888;240;65442;-72
2023/03/07 16:20:56;;;;;;;;;;;;;;;25.91;48.90;95910.77;591084;240;65532;-72
2023/03/07 16:23:24;;;;;;;;;;;;;;;25.90;48.82;95918.05;591078;240;65149;-72
2023/03/07 16:25:52;;;;;;;;;;;;;;;25.89;46.70;95918.37;591090;240;63318;-72
2023/03/07 16:28:20;;;;;;;;;;;;;;;25.89;46.51;95923.75;591085;240;65235;-72
2023/03/07 16:30:47;;;;;;;;;;;;;;;25.87;46.32;95926.79;590999;240;65092;-72
2023/03/07 16:33:15;;;;;;;;;;;;;;;25.86;48.68;95925.23;590988;240;65496;-71
2023/03/07 16:35:45;;;;;;;;;;;;;;;25.87;49.91;95926.79;591111;240;44985;-71
2023/03/07 16:38:12;;;;;;;;;;;;;;;25.87;47.97;95936.77;591123;240;62760;-71
2023/03/07 16:40:42;;;;;;;;;;;;;;;25.84;47.30;95938.22;591053;240;65404;-64
2023/03/07 16:43:26;;;;;;;;;;;;;;;25.85;49.73;95939.00;591034;240;63292;-64
2023/03/07 16:45:56;;;;;;;;;;;;;;;25.86;50.23;95946.76;590770;240;65076;-63
2023/03/07 16:48:27;;;;;;;;;;;;;;;25.83;50.28;95946.58;591078;240;65910;-64
2023/03/07 16:50:55;;;;;;;;;;;;;;;25.83;48.93;95950.08;590994;240;65204;-64
2023/03/07 16:53:23;;;;;;;;;;;;;;;25.84;47.30;95950.89;591065;240;65238;-65
2023/03/07 16:55:50;;;;;;;;;;;;;;;25.84;47.96;95954.36;591063;240;65449;-64
2023/03/07 16:58:19;;;;;;;;;;;;;;;25.84;50.34;95953.58;591050;240;65198;-64
2023/03/07 17:00:47;;;;;;;;;;;;;;;25.83;50.17;95951.95;591092;240;62952;-64
2023/03/07 17:03:14;;;;;;;;;;;;;;;25.84;47.92;95964.34;591066;240;62761;-65
2023/03/07 17:05:42;;;;;;;;;;;;;;;25.84;49.44;95962.44;591148;240;64960;-64
2023/03/07 17:08:11;;;;;;;;;;;;;;;25.85;47.23;95965.91;591047;240;64969;-64
2023/03/07 17:10:39;;;;;;;;;;;;;;;25.84;50.38;95959.75;591064;240;62756;-64
2023/03/07 17:13:08;;;;;;;;;;;;;;;25.85;51.23;95966.70;591064;240;62714;-64
2023/03/07 17:15:37;;;;;;;;;;;;;;;25.87;49.97;95969.07;590662;240;62910;-64
2023/03/07 17:18:05;;;;;;;;;;;;;;;25.85;47.03;95958.62;591073;240;63066;-64
2023/03/07 17:20:33;;;;;;;;;;;;;;;25.86;49.05;95962.91;591080;240;64929;-64
2023/03/07 17:23:00;;;;;;;;;;;;;;;25.88;49.35;95962.56;591089;240;65207;-64
2023/03/07 17:25:28;;;;;;;;;;;;;;;25.87;47.30;95969.07;591033;240;65190;-64
2023/03/07 17:28:01;;;;;;;;;;;;;;;25.88;48.41;95974.11;591070;240;65148;-64
2023/03/07 17:30:30;;;;;;;;;;;;;;;25.90;50.30;95979.18;591009;240;63049;-64
2023/03/07 17:33:01;;;;;;;;;;;;;;;25.89;49.67;95983.78;591052;240;65451;-64
2023/03/07 17:35:30;;;;;;;;;;;;;;;25.90;49.70;95982.66;583665;240;65763;-64
2023/03/07 17:37:57;;;;;;;;;;;;;;;25.90;47.98;95985.34;591049;240;65054;-64
2023/03/07 17:40:25;;;;;;;;;;;;;;;25.91;50.47;95989.60;591031;240;65777;-64
2023/03/07 17:42:53;;;;;;;;;;;;;;;25.91;47.32;95989.60;591081;240;65250;-64
2023/03/07 17:45:21;;;;;;;;;;;;;;;25.94;47.98;95990.07;591061;240;63023;-64
2023/03/07 17:47:52;;;;;;;;;;;;;;;25.95;48.20;95988.97;591028;240;63388;-64
2023/03/07 17:50:24;;;;;;;;;;;;;;;25.95;49.53;95999.73;591043;240;65285;-64
2023/03/07 17:52:53;;;;;;;;;;;;;;;25.95;47.94;96003.22;591086;240;63051;-64
2023/03/07 17:55:23;;;;;;;;;;;;;;;25.97;47.01;96000.96;591052;240;65057;-63
2023/03/07 17:57:51;;;;;;;;;;;;;;;25.97;49.03;96008.25;591058;240;65757;-64
2023/03/07 18:00:19;;;;;;;;;;;;;;;25.98;47.91;96012.54;591061;240;65023;-64
2023/03/07 18:02:46;;;;;;;;;;;;;;;25.99;47.54;96011.41;591050;240;65917;-64
2023/03/07 18:05:14;;;;;;;;;;;;;;;26.00;47.67;96021.05;591064;240;63170;-64
2023/03/07 18:07:41;;;;;;;;;;;;;;;26.00;48.30;96013.80;590945;240;63023;-64
2023/03/07 18:10:09;;;;;;;;;;;;;;;26.01;46.14;96019.96;591059;240;65537;-64
2023/03/07 18:12:37;;;;;;;;;;;;;;;26.02;46.05;96022.31;591045;240;65247;-64
2023/03/07 18:15:06;;;;;;;;;;;;;;;26.03;47.03;96020.42;590833;240;65036;-64
2023/03/07 18:17:34;;;;;;;;;;;;;;;26.03;46.41;96026.59;590933;240;67259;-64
2023/03/07 18:20:02;;;;;;;;;;;;;;;26.04;48.09;96027.38;590902;240;65114;-72
2023/03/07 18:22:29;;;;;;;;;;;;;;;26.04;47.06;96027.38;590900;240;65191;-71
2023/03/07 18:24:57;;;;;;;;;;;;;;;26.05;48.28;96029.73;590908;234;64946;-64
2023/03/07 18:27:24;;;;;;;;;;;;;;;26.07;47.62;96026.72;590897;240;64877;-64
2023/03/07 18:29:52;;;;;;;;;;;;;;;26.07;46.50;96029.41;590922;237;62874;-64
2023/03/07 18:32:19;;;;;;;;;;;;;;;26.08;43.32;96033.67;590936;240;64977;-63
2023/03/07 18:34:47;;;;;;;;;;;;;;;26.08;47.77;96033.67;588776;240;65003;-64
2023/03/07 18:37:15;;;;;;;;;;;;;;;26.10;48.54;96034.14;588446;241;63842;-64
2023/03/07 18:39:44;;;;;;;;;;;;;;;26.09;47.61;96029.88;582902;241;64990;-64
2023/03/07 18:42:15;;;;;;;;;;;;;;;26.10;48.73;96029.53;588464;241;45812;-64
2023/03/07 18:44:43;;;;;;;;;;;;;;;26.11;46.47;96033.05;588377;241;63113;-64
2023/03/07 18:47:11;;;;;;;;;;;;;;;26.12;45.63;96039.99;588377;241;67117;-64
2023/03/07 18:49:39;;;;;;;;;;;;;;;26.12;47.70;96037.30;588377;241;67528;-71
2023/03/07 18:52:06;;;;;;;;;;;;;;;26.12;46.12;96038.08;588425;241;65194;-72
2023/03/07 18:54:34;;;;;;;;;;;;;;;26.13;46.29;96044.25;588377;241;67273;-71
2023/03/07 18:57:01;;;;;;;;;;;;;;;26.14;47.08;96043.16;588373;241;66991;-72
2023/03/07 18:59:30;;;;;;;;;;;;;;;26.15;45.07;96049.32;588391;241;62979;-72
2023/03/07 19:02:01;;;;;;;;;;;;;;;26.15;47.44;96044.72;588363;241;67205;-72
2023/03/07 19:04:30;;;;;;;;;;;;;;;26.16;47.59;96051.67;588449;241;67232;-72
2023/03/07 19:06:59;;;;;;;;;;;;;;;26.15;47.17;96052.80;588363;241;63023;-72
2023/03/07 19:09:27;;;;;;;;;;;;;;;26.16;43.44;96054.36;588364;240;67099;-71
2023/03/07 19:11:58;;;;;;;;;;;;;;;26.15;47.20;96066.26;588378;241;67068;-71
2023/03/07 19:14:25;;;;;;;;;;;;;;;26.16;47.01;96065.13;588378;241;65253;-71
2023/03/07 19:16:54;;;;;;;;;;;;;;;26.17;45.44;96058.66;588393;241;67408;-72
2023/03/07 19:19:23;;;;;;;;;;;;;;;26.17;46.79;96055.95;588443;241;67085;-72
2023/03/07 19:21:50;;;;;;;;;;;;;;;26.18;46.03;96059.44;588376;241;65085;-72
2023/03/07 19:24:18;;;;;;;;;;;;;;;26.18;47.12;96064.82;588385;241;67252;-72
2023/03/07 19:26:45;;;;;;;;;;;;;;;26.17;47.11;96055.95;588377;241;67105;-72
2023/03/07 19:29:13;;;;;;;;;;;;;;;26.18;46.64;96065.60;582502;241;65093;-71
2023/03/07 19:31:43;;;;;;;;;;;;;;;26.19;47.40;96074.47;588453;241;67301;-71
2023/03/07 19:34:10;;;;;;;;;;;;;;;26.18;46.11;96067.52;589862;240;65073;-72
2023/03/07 19:36:40;;;;;;;;;;;;;;;26.19;45.00;96069.89;590919;240;63055;-72
2023/03/07 19:39:19;;;;;;;;;;;;;;;26.20;47.42;96071.45;590859;240;67239;-72
2023/03/07 19:41:46;;;;;;;;;;;;;;;26.20;45.16;96076.84;590723;240;66892;-72
2023/03/07 19:44:14;;;;;;;;;;;;;;;26.20;47.60;96076.84;590937;240;65361;-72
2023/03/07 19:46:45;;;;;;;;;;;;;;;26.20;47.22;96081.45;590961;240;67468;-72
2023/03/07 19:49:11;;;;;;;;;;;;;;;26.20;47.37;96073.37;590840;240;66915;-71
2023/03/07 19:51:40;;;;;;;;;;;;;;;26.20;48.50;96078.75;590855;240;45112;-71
2023/03/07 19:54:11;;;;;;;;;;;;;;;26.18;45.93;96079.06;590791;240;67086;-72
2023/03/07 19:56:38;;;;;;;;;;;;;;;26.19;46.03;96083.36;590909;240;64663;-72
2023/03/07 19:59:07;;;;;;;;;;;;;;;26.20;47.10;96084.14;590977;240;62775;-72
2023/03/07 20:01:34;;;;;;;;;;;;;;;26.18;45.58;96087.14;590932;240;67249;-71
2023/03/07 20:04:03;;;;;;;;;;;;;;;26.17;46.71;96085.58;590913;240;67456;-72
2023/03/07 20:06:31;;;;;;;;;;;;;;;26.18;46.51;96084.45;590956;240;65035;-72
2023/03/07 20:09:02;;;;;;;;;;;;;;;26.20;46.00;96092.22;590976;240;47190;-72
2023/03/07 20:11:30;;;;;;;;;;;;;;;26.17;47.37;96080.19;590948;240;64834;-72
2023/03/07 20:14:02;;;;;;;;;;;;;;;26.17;45.43;96090.19;590892;240;63849;-71
2023/03/07 20:16:31;;;;;;;;;;;;;;;26.18;47.33;96089.84;590930;240;65224;-71
2023/03/07 20:19:00;;;;;;;;;;;;;;;26.17;47.68;96085.58;590900;240;67118;-71
2023/03/07 20:21:29;;;;;;;;;;;;;;;26.17;47.04;96088.27;590960;240;63028;-71
2023/03/07 20:23:59;;;;;;;;;;;;;;;26.16;47.96;96089.37;590960;240;51326;-71
2023/03/07 20:26:30;;;;;;;;;;;;;;;26.15;46.25;96082.42;590972;240;67102;-72
2023/03/07 20:28:59;;;;;;;;;;;;;;;26.16;46.62;96083.20;590911;240;63015;-71
2023/03/07 20:31:27;;;;;;;;;;;;;;;26.16;47.98;96093.97;590948;240;65272;-72
2023/03/07 20:33:58;;;;;;;;;;;;;;;26.15;46.96;96085.11;590883;240;67125;-72
2023/03/07 20:36:26;;;;;;;;;;;;;;;26.15;47.74;96084.33;590918;240;62864;-72
2023/03/07 20:38:55;;;;;;;;;;;;;;;26.14;47.50;96086.23;590985;240;67292;-72
2023/03/07 20:41:26;;;;;;;;;;;;;;;26.13;49.80;96085.42;591030;240;47080;-72
2023/03/07 20:43:59;;;;;;;;;;;;;;;26.13;48.66;96087.33;590942;240;65112;-72
2023/03/07 20:46:27;;;;;;;;;;;;;;;26.12;46.91;96083.86;590953;240;67277;-72
2023/03/07 20:48:58;;;;;;;;;;;;;;;26.12;45.69;96085.77;590963;240;46933;-72
2023/03/07 20:51:27;;;;;;;;;;;;;;;26.12;47.66;96086.55;590954;240;65035;-72
2023/03/07 20:53:57;;;;;;;;;;;;;;;26.12;47.30;96093.84;590950;240;67248;-72
2023/03/07 20:56:27;;;;;;;;;;;;;;;26.11;48.39;96086.89;590938;240;66965;-71
2023/03/07 20:58:57;;;;;;;;;;;;;;;26.09;46.37;96089.90;590979;240;45006;-71
2023/03/07 21:01:25;;;;;;;;;;;;;;;26.10;47.07;96087.98;590888;240;64968;-71
2023/03/07 21:03:53;;;;;;;;;;;;;;;26.09;46.30;96089.11;590944;240;66965;-71
2023/03/07 21:06:22;;;;;;;;;;;;;;;26.08;48.49;96084.83;590958;240;65198;-71
2023/03/07 21:08:53;;;;;;;;;;;;;;;26.08;47.56;96082.95;590999;240;46789;-71
2023/03/07 21:11:22;;;;;;;;;;;;;;;26.08;47.23;96087.52;590964;240;66403;-72
2023/03/07 21:13:51;;;;;;;;;;;;;;;26.07;47.60;96080.56;590925;240;66059;-72
2023/03/07 21:16:21;;;;;;;;;;;;;;;26.05;46.33;96083.58;590912;240;45524;-71
2023/03/07 21:18:49;;;;;;;;;;;;;;;26.06;48.84;96082.48;590930;240;67019;-72
2023/03/07 21:21:20;;;;;;;;;;;;;;;26.06;49.60;96087.08;590921;240;48312;-72
2023/03/07 21:23:48;;;;;;;;;;;;;;;26.04;47.15;96081.22;590779;240;66889;-72
2023/03/07 21:26:21;;;;;;;;;;;;;;;26.04;49.08;96082.01;590932;240;46428;-72
2023/03/07 21:28:52;;;;;;;;;;;;;;;26.04;48.23;96078.53;590929;240;65112;-71
2023/03/07 21:31:24;;;;;;;;;;;;;;;26.03;47.37;96072.36;590992;240;47978;-71
2023/03/07 21:33:53;;;;;;;;;;;;;;;26.03;47.98;96079.66;590940;240;65060;-71
2023/03/07 21:36:20;;;;;;;;;;;;;;;26.02;45.61;96080.75;590955;240;63018;-71
2023/03/07 21:38:48;;;;;;;;;;;;;;;26.03;50.19;96076.97;590931;240;66948;-72
2023/03/07 21:41:17;;;;;;;;;;;;;;;26.02;50.38;96072.67;590925;240;67754;-71
2023/03/07 21:43:45;;;;;;;;;;;;;;;25.99;48.34;96082.19;590920;240;62986;-71
2023/03/07 21:46:13;;;;;;;;;;;;;;;25.99;46.90;96084.89;590987;240;65258;-71
2023/03/07 21:48:41;;;;;;;;;;;;;;;25.99;47.16;96079.50;590910;240;64903;-71
2023/03/07 21:51:09;;;;;;;;;;;;;;;25.98;45.23;96080.63;590940;240;63034;-71
2023/03/07 21:53:36;;;;;;;;;;;;;;;25.98;46.27;96079.84;590912;240;65263;-71
2023/03/07 21:56:10;;;;;;;;;;;;;;;25.97;45.41;96078.25;590915;240;64963;-71
2023/03/07 21:58:39;;;;;;;;;;;;;;;25.98;47.04;96077.15;590903;240;65110;-71
2023/03/07 22:01:14;;;;;;;;;;;;;;;25.96;47.81;96082.84;590948;240;67330;-71
2023/03/07 22:03:41;;;;;;;;;;;;;;;25.97;48.46;96083.63;590795;240;67035;-63
2023/03/07 22:06:10;;;;;;;;;;;;;;;25.95;45.97;96088.58;590914;240;65042;-63
2023/03/07 22:08:38;;;;;;;;;;;;;;;25.95;49.71;96077.80;590882;240;65040;-63
2023/03/07 22:11:07;;;;;;;;;;;;;;;25.94;47.21;96087.76;590929;240;67330;-63
2023/03/07 22:13:35;;;;;;;;;;;;;;;25.93;47.12;96074.64;590974;240;65127;-63
2023/03/07 22:16:04;;;;;;;;;;;;;;;25.94;49.62;96076.21;590912;240;65135;-64
2023/03/07 22:18:35;;;;;;;;;;;;;;;25.93;49.56;96072.73;590892;240;66949;-63
2023/03/07 22:21:12;;;;;;;;;;;;;;;25.91;47.49;96081.13;590893;240;63052;-63
2023/03/07 22:23:40;;;;;;;;;;;;;;;25.90;45.88;96081.46;590931;240;67319;-63
2023/03/07 22:26:08;;;;;;;;;;;;;;;25.90;45.60;96082.25;590940;240;66847;-63
2023/03/07 22:28:36;;;;;;;;;;;;;;;25.89;48.26;96083.37;590968;240;64986;-64
2023/03/07 22:31:04;;;;;;;;;;;;;;;25.89;48.30;96082.56;590883;240;64947;-63
2023/03/07 22:33:33;;;;;;;;;;;;;;;25.87;47.61;96082.91;590870;240;67385;-63
2023/03/07 22:36:02;;;;;;;;;;;;;;;25.87;49.57;96082.91;590895;240;65079;-63
2023/03/07 22:38:30;;;;;;;;;;;;;;;25.87;48.89;96077.52;590904;240;65105;-63
2023/03/07 22:41:05;;;;;;;;;;;;;;;25.84;46.27;96072.78;590916;240;67099;-63